Airfield :
LOGIN :

Register | Disclaimer

   EN    FR    IT 

 










Legend :    VFR   Marginal VFR   IFR   Intensive IFR   Very Intensive IFR
Visi :
Ceiling :
>= 8 km
>= 3000ft
5 to 8 km
1000 to 3000 ft
1500m to 5 km
500 to 1000 ft
800 to 1500m
200 to 500 ft
< 800m
< 200 ft
Symbols :   Thunderstorms  Fog  Heavy snow  Heavy precipitations  Wind > 20 kt
SIGMETs :     Misc.  Thunderstorms  Icing  Turbulence  Mountain Waves  Volcanic Ashes






- Airport Elevation : 138 ft
- IATA code : BIO


LEBB - Bilbao

CURRENT METAR :
  • 081900Z 09004KT 050V120 9999 FEW060 08/07 Q1021 NOSIG

EXPIRED METARs :
  • 081830Z 09003KT 050V130 CAVOK 09/07 Q1021 NOSIG
  • 081800Z 08003KT 030V110 CAVOK 10/07 Q1021 NOSIG
  • 081730Z 08003KT 010V110 CAVOK 12/06 Q1021 NOSIG
  • 081700Z 00000KT CAVOK 12/07 Q1020 NOSIG
  • 081630Z 26003KT 210V310 CAVOK 13/07 Q1020 NOSIG
  • 081600Z 27006KT 240V300 CAVOK 14/06 Q1020 NOSIG
  • 081530Z 28008KT 250V320 CAVOK 14/06 Q1020 NOSIG
  • 081500Z 29010KT 260V330 9999 FEW058 14/07 Q1020 NOSIG
  • 081430Z 29009KT 260V320 9999 SCT045 BKN056 BKN070 14/07 Q1020 NOSIG

TAF TAF LEBB
Valid from the 08 at 18:00 until the 09 at 18:00 UTC


081700Z 0818/0918 20009KT 9999 FEW050 TX18/0913Z TN10/0901Z
TEMPO 0901/0914 22018G30KT
PROB40
TEMPO 0914/0918 3000 SHRA SCT020TCU



MET'MAP, your aeronautical weather chart ! - Copyright ORBIFLY December 2007 - Disclaimer

ORBIFLY MET'MAP TEAM :

Programming & Development : Alexandra Zaïnal
Original concept : Baudouin d'Aumeries
Technical & hardware support : Manuel Goepfert
Assistance : Marc-Olivier Méhu




SOURCES & CREDITS :

   NOAA